Saturday, February 24, 2018, 8:22 AM GMT
Back to Local

CWTN, Cap Tourmente

Location: , , Canada Lat: 47.067
Local Time: 8:22 AM GMT ( 8:22 GMT) Lon: -70.8
Time Zone: GMT Elev: 19 ft

Show me the last for .
Show Coded

Time T Td Feel RH Dir Speed Gust Alt SLP Vis Weather Sky Remarks
2018-02-24 08:00 32 31 26 96 290° 6 - - 29.84 0 None
2018-02-24 07:00 31 31 25 97 290° 7 - - 29.83 0 None
2018-02-24 06:00 29 28 22 98 280° 7 - - 29.83 0 None
2018-02-24 05:00 28 27 20 97 270° 7 - - 29.86 0 None
2018-02-24 04:00 27 27 21 98 270° 6 - - 29.88 0 None
2018-02-24 03:00 28 27 22 97 270° 5 - - 29.93 0 None
2018-02-24 02:00 27 27 22 97 270° 5 - - 29.98 0 1-hr Precip Total: 0.07"
2018-02-24 01:00 27 26 22 95 280° 5 - - 30.03 0 None
2018-02-24 00:00 27 25 21 93 270° 5 - - 30.08 0 1-hr Precip Total: 0.05"
2018-02-23 23:00 25 24 - 93 280° 2 - - 30.13 0 None
2018-02-23 22:00 26 18 - 70 140° 2 - - 30.19 0 Pressure falling rapidly
2018-02-23 21:00 27 17 - 64 80° 2 - - 30.26 0 None
2018-02-23 20:00 27 15 23 59 80° 3 - - 30.32 0 None
2018-02-23 19:00 30 8 - 39 260° 2 - - 30.37 0 Pressure falling rapidly
2018-02-23 18:00 27 10 21 49 250° 5 - - 30.48 0 None
2018-02-23 17:00 24 13 - 61 210° 2 - - 30.52 0 Pressure falling rapidly
2018-02-23 16:00 21 7 17 52 230° 3 - - 30.60 0 None
2018-02-23 15:00 18 7 12 61 240° 3 - - 30.65 0 None
2018-02-23 14:00 14 3 7 58 240° 5 - - 30.68 0 None
2018-02-23 13:00 11 3 3 69 250° 5 - - 30.70 0 None
2018-02-23 12:00 10 4 1 75 290° 6 - - 30.71 0 None
2018-02-23 11:00 6 2 - 80 300° 2 - - 30.73 0 None
2018-02-23 10:00 10 2 3 70 300° 3 - - 30.74 0 None
2018-02-23 09:00 7 2 0 80 320° 3 - - 30.74 0 None

Support USWX by starting your Amazon purchase here.